ADDS - METARS form results

Aviation Digital Data Service (ADDS)

Output produced by METARs form (0443 UTC 25 January 2020)
found at http://aviationweather.gov/metar/data/
 
METAR text: KJOT 250435Z AUTO 22005KT 3SM DZ OVC003 02/02 A2980 RMK AO2 T00190016
Conditions at: KJOT (JOLIET , IL, US) observed 0435 UTC 25 January 2020
Temperature: 1.9°C (35°F)
Dewpoint: 1.6°C (35°F) [RH = 98%]
Pressure (altimeter): 29.80 inches Hg (1009.2 mb)
Winds: from the SW (220 degrees) at 6 MPH (5 knots; 2.6 m/s)
Visibility: 3 miles ( 5 km)
Ceiling: 300 feet AGL
Clouds: overcast cloud deck at 300 feet AGL
Weather: DZ  (moderate drizzle)

METAR text: KJOT 250415Z AUTO 24004KT 4SM BR OVC003 02/02 A2980 RMK AO2 T00200017
Conditions at: KJOT (JOLIET , IL, US) observed 0415 UTC 25 January 2020
Temperature: 2.0°C (36°F)
Dewpoint: 1.7°C (35°F) [RH = 98%]
Pressure (altimeter): 29.80 inches Hg (1009.2 mb)
Winds: from the WSW (240 degrees) at 5 MPH (4 knots; 2.1 m/s)
Visibility: 4 miles ( 6 km)
Ceiling: 300 feet AGL
Clouds: overcast cloud deck at 300 feet AGL
Weather: BR  (mist)

METAR text: KJOT 250355Z AUTO 23004KT 4SM BR OVC003 02/02 A2980 RMK AO2 T00200018
Conditions at: KJOT (JOLIET , IL, US) observed 0355 UTC 25 January 2020
Temperature: 2.0°C (36°F)
Dewpoint: 1.8°C (35°F) [RH = 99%]
Pressure (altimeter): 29.80 inches Hg (1009.2 mb)
Winds: from the SW (230 degrees) at 5 MPH (4 knots; 2.1 m/s)
Visibility: 4 miles ( 6 km)
Ceiling: 300 feet AGL
Clouds: overcast cloud deck at 300 feet AGL
Weather: BR  (mist)